Time;durP1;ratioP1;P1;durP2;ratioP2;P2;SDS_P1;SDS_P2;PMS_P1;PMS_P2;Temp;Humidity;BMP_temperature;BMP_pressure;BME280_temperature;BME280_humidity;BME280_pressure;Samples;Min_cycle;Max_cycle;Signal;HPM_P1;HPM_P2
2022/05/10 00:01:03;;;;;;;7.00;4.35;;;;;;;13.53;100.00;101081.88;5587068;31;33500;-68
2022/05/10 00:04:09;;;;;;;7.30;4.10;;;;;;;13.57;100.00;101083.19;5587277;31;32683;-68
2022/05/10 00:07:11;;;;;;;9.73;4.20;;;;;;;13.74;100.00;101087.50;5588184;31;34259;-68
2022/05/10 00:10:14;;;;;;;4.28;3.75;;;;;;;13.71;100.00;101086.00;5587879;31;34196;-68
2022/05/10 00:13:17;;;;;;;6.28;4.18;;;;;;;13.86;100.00;101088.78;5587091;31;33045;-68
2022/05/10 00:16:21;;;;;;;5.75;3.90;;;;;;;13.76;100.00;101080.13;5587705;31;34311;-68
2022/05/10 00:19:27;;;;;;;5.05;3.90;;;;;;;13.78;100.00;101078.97;5587992;31;34826;-68
2022/05/10 00:22:30;;;;;;;6.45;3.85;;;;;;;13.68;100.00;101070.34;5586933;31;32785;-68
2022/05/10 00:25:33;;;;;;;6.55;4.10;;;;;;;13.68;100.00;101073.00;5587447;31;35456;-69
2022/05/10 00:28:36;;;;;;;4.45;3.60;;;;;;;13.66;100.00;101072.34;5586783;31;32720;-69
2022/05/10 00:31:38;;;;;;;5.15;4.00;;;;;;;13.70;100.00;101070.19;5587535;31;35546;-68
2022/05/10 00:34:43;;;;;;;5.60;3.70;;;;;;;13.73;100.00;101072.50;5586839;31;33373;-68
2022/05/10 00:37:47;;;;;;;6.30;3.65;;;;;;;13.65;100.00;101061.88;5590087;31;34644;-69
2022/05/10 00:40:50;;;;;;;6.62;3.70;;;;;;;13.55;100.00;101056.72;5590653;31;34823;-68
2022/05/10 00:44:14;;;;;;;8.95;4.20;;;;;;;13.46;100.00;101057.72;5590685;31;34332;-68
2022/05/10 00:47:26;;;;;;;6.45;4.37;;;;;;;13.36;100.00;101054.44;5590122;31;34923;-69
2022/05/10 00:50:39;;;;;;;5.12;3.85;;;;;;;13.29;100.00;101054.25;5590232;31;34971;-69
2022/05/10 00:53:49;;;;;;;8.88;4.60;;;;;;;13.34;100.00;101048.44;5590273;31;34222;-68
2022/05/10 00:57:05;;;;;;;5.20;4.18;;;;;;;13.26;100.00;101038.62;5590225;31;34224;-69
2022/05/10 01:00:15;;;;;;;6.97;4.00;;;;;;;13.26;100.00;101045.78;5589589;31;33497;-68
2022/05/10 01:03:34;;;;;;;4.97;3.87;;;;;;;13.31;100.00;101044.25;5589158;31;36697;-68
2022/05/10 01:07:03;;;;;;;9.03;4.20;;;;;;;13.37;100.00;101042.75;5590052;31;35491;-69
2022/05/10 01:10:13;;;;;;;4.68;3.70;;;;;;;13.33;100.00;101034.25;5589399;31;33488;-68
2022/05/10 01:13:28;;;;;;;5.00;3.95;;;;;;;13.41;100.00;101036.06;5590070;31;34675;-69
2022/05/10 01:16:33;;;;;;;5.70;3.92;;;;;;;13.47;100.00;101043.41;5590428;31;34368;-69
2022/05/10 01:19:37;;;;;;;6.12;3.78;;;;;;;13.48;100.00;101032.56;5590022;31;34162;-69
2022/05/10 01:23:03;;;;;;;5.00;3.70;;;;;;;13.51;100.00;101033.25;5590425;31;34457;-68
2022/05/10 01:26:11;;;;;;;5.05;3.95;;;;;;;13.47;100.00;101033.56;5589974;31;34321;-69
2022/05/10 01:29:24;;;;;;;6.22;3.95;;;;;;;13.49;100.00;101026.25;5589971;31;34156;-68
2022/05/10 01:36:32;;;;;;;4.55;3.35;;;;;;;13.53;100.00;101029.38;5589777;31;34321;-69
2022/05/10 01:39:44;;;;;;;5.62;4.00;;;;;;;13.68;100.00;101027.69;5588899;31;33302;-69
2022/05/10 01:42:53;;;;;;;9.50;3.95;;;;;;;13.52;100.00;101027.72;5589742;31;34822;-69
2022/05/10 01:46:14;;;;;;;5.85;4.32;;;;;;;13.48;100.00;101029.06;5589746;31;34536;-69
2022/05/10 01:49:31;;;;;;;5.75;3.85;;;;;;;13.54;100.00;101027.56;5588516;31;34422;-69
2022/05/10 01:52:45;;;;;;;5.32;3.95;;;;;;;13.51;100.00;101025.25;5589109;31;32570;-69
2022/05/10 01:55:54;;;;;;;3.85;3.42;;;;;;;13.43;100.00;101023.41;5589717;31;34338;-69
2022/05/10 01:58:57;;;;;;;4.00;3.60;;;;;;;13.42;100.00;101019.09;5588963;31;34786;-69
2022/05/10 02:02:03;;;;;;;4.45;3.62;;;;;;;13.42;100.00;101021.75;5589879;31;35376;-69
2022/05/10 02:05:12;;;;;;;7.10;3.40;;;;;;;13.38;100.00;101013.28;5589632;31;34894;-68
2022/05/10 02:08:28;;;;;;;6.28;3.00;;;;;;;13.37;100.00;101022.25;5589610;31;34963;-69
2022/05/10 02:11:36;;;;;;;4.93;3.58;;;;;;;13.39;100.00;101020.28;5589509;31;34140;-69
2022/05/10 02:14:45;;;;;;;5.12;3.20;;;;;;;13.40;100.00;101018.44;5588917;31;34343;-69
2022/05/10 02:17:47;;;;;;;4.70;3.37;;;;;;;13.41;100.00;101014.75;5589459;31;35463;-69
2022/05/10 02:21:01;;;;;;;3.80;3.28;;;;;;;13.40;100.00;101019.28;5589378;31;34316;-69
2022/05/10 02:24:13;;;;;;;4.93;3.30;;;;;;;13.36;100.00;101012.59;5589496;31;34215;-68
2022/05/10 02:27:20;;;;;;;5.00;3.15;;;;;;;13.37;100.00;101008.94;5589342;31;35416;-69
2022/05/10 02:30:28;;;;;;;4.15;3.20;;;;;;;13.36;100.00;101012.59;5588968;31;33858;-69
2022/05/10 02:33:31;;;;;;;3.80;2.92;;;;;;;13.35;100.00;101010.13;5589441;31;34315;-69
2022/05/10 02:36:34;;;;;;;6.05;3.42;;;;;;;13.32;100.00;101015.78;5589522;31;34192;-69
2022/05/10 02:39:37;;;;;;;5.15;3.33;;;;;;;13.31;100.00;101009.59;5589626;31;34157;-69
2022/05/10 02:42:41;;;;;;;4.55;3.22;;;;;;;13.29;100.00;101008.97;5589411;31;35648;-67
2022/05/10 02:45:44;;;;;;;5.28;3.12;;;;;;;13.24;100.00;101007.81;5589347;31;34151;-68
2022/05/10 02:48:48;;;;;;;3.95;3.20;;;;;;;13.16;100.00;101005.16;5589138;31;34623;-68
2022/05/10 02:51:50;;;;;;;4.80;3.37;;;;;;;13.08;100.00;101006.78;5588542;31;32966;-68
2022/05/10 02:55:08;;;;;;;4.35;3.12;;;;;;;12.95;100.00;101006.50;5589280;31;34640;-68
2022/05/10 02:58:43;;;;;;;4.65;2.87;;;;;;;12.87;100.00;101011.84;5588804;31;34922;-69
2022/05/10 03:01:48;;;;;;;5.03;3.67;;;;;;;12.91;100.00;101002.50;5588969;31;34192;-68
2022/05/10 03:04:57;;;;;;;3.53;3.22;;;;;;;12.80;100.00;101012.66;5587803;31;33057;-69
2022/05/10 03:08:00;;;;;;;5.12;3.15;;;;;;;12.75;100.00;101001.66;5588165;31;34400;-68
2022/05/10 03:11:04;;;;;;;4.25;3.60;;;;;;;12.69;100.00;101004.97;5588902;31;34830;-69
2022/05/10 03:14:09;;;;;;;6.57;3.72;;;;;;;12.65;100.00;101007.16;5588312;31;34013;-70
2022/05/10 03:17:12;;;;;;;4.97;3.85;;;;;;;12.67;100.00;101007.00;5588957;31;34142;-70
2022/05/10 03:20:15;;;;;;;6.05;3.72;;;;;;;12.59;100.00;101003.31;5588954;31;34831;-70
2022/05/10 03:23:24;;;;;;;5.18;3.45;;;;;;;12.47;100.00;101003.81;5588214;31;34417;-70
2022/05/10 03:26:27;;;;;;;4.85;3.17;;;;;;;12.37;100.00;101000.47;5588801;31;34192;-70
2022/05/10 03:29:30;;;;;;;5.62;4.15;;;;;;;12.43;100.00;101000.66;5575290;31;33128;-70
2022/05/10 03:32:33;;;;;;;6.20;4.00;;;;;;;12.47;100.00;101001.16;5588613;31;34397;-70
2022/05/10 03:35:36;;;;;;;8.73;3.75;;;;;;;12.61;100.00;101003.16;5588850;31;34112;-69
2022/05/10 03:38:38;;;;;;;6.00;3.78;;;;;;;12.52;100.00;101006.81;5588412;31;34670;-70
2022/05/10 03:41:41;;;;;;;8.02;3.97;;;;;;;12.53;100.00;101009.31;5587762;31;33647;-69
2022/05/10 03:44:49;;;;;;;5.12;3.78;;;;;;;12.45;100.00;101006.63;5588747;31;34316;-69
2022/05/10 03:47:52;;;;;;;4.65;3.97;;;;;;;12.43;100.00;101005.97;5588102;31;34131;-68
2022/05/10 03:50:55;;;;;;;5.40;3.72;;;;;;;12.54;100.00;101007.47;5587544;31;32873;-69
2022/05/10 03:53:58;;;;;;;6.85;3.87;;;;;;;12.57;100.00;101009.81;5588041;31;34250;-69
2022/05/10 03:57:00;;;;;;;5.65;4.03;;;;;;;12.66;100.00;101006.16;5587215;31;32913;-70
2022/05/10 04:00:11;;;;;;;9.73;4.10;;;;;;;12.72;100.00;101005.50;5587997;31;34317;-70
2022/05/10 04:03:14;;;;;;;5.75;4.00;;;;;;;12.84;100.00;101001.50;5587504;31;33563;-70
2022/05/10 04:06:18;;;;;;;5.10;3.78;;;;;;;12.82;100.00;101003.50;5588070;31;34362;-70
2022/05/10 04:09:20;;;;;;;8.65;4.05;;;;;;;12.93;100.00;101010.31;5587858;31;34980;-70
2022/05/10 04:12:23;;;;;;;5.72;3.90;;;;;;;13.02;100.00;101010.13;5575545;31;33080;-70
2022/05/10 04:15:25;;;;;;;4.72;3.92;;;;;;;13.16;100.00;101005.16;5590689;31;34180;-69
2022/05/10 04:18:28;;;;;;;7.07;4.28;;;;;;;13.26;100.00;101005.81;5590601;31;34364;-69
2022/05/10 04:21:31;;;;;;;8.90;4.30;;;;;;;13.37;100.00;101010.75;5590841;31;34198;-70
2022/05/10 04:24:35;;;;;;;5.43;3.65;;;;;;;13.53;100.00;101009.91;5590463;31;34843;-70
2022/05/10 04:27:39;;;;;;;6.85;3.80;;;;;;;13.66;100.00;101012.84;5589803;31;32501;-70
2022/05/10 04:30:42;;;;;;;5.35;3.78;;;;;;;13.84;100.00;101016.13;5589843;31;34873;-70
2022/05/10 04:33:45;;;;;;;4.93;3.67;;;;;;;13.90;100.00;101023.41;5589391;31;35097;-70
2022/05/10 04:36:47;;;;;;;7.35;3.53;;;;;;;14.08;100.00;101025.84;5590362;31;34894;-70
2022/05/10 04:43:11;;;;;;;4.53;3.75;;;;;;;14.40;100.00;101030.19;5590467;31;34188;-70
2022/05/10 04:46:15;;;;;;;6.12;3.90;;;;;;;14.37;100.00;101036.72;5590220;31;34322;-70
2022/05/10 04:49:18;;;;;;;12.90;4.00;;;;;;;14.54;100.00;101029.41;5590222;31;34880;-71
2022/05/10 04:52:20;;;;;;;6.25;3.87;;;;;;;14.78;100.00;101040.75;5590245;31;34096;-70
2022/05/10 04:55:23;;;;;;;7.25;4.07;;;;;;;14.86;100.00;101039.03;5589632;31;32715;-71
2022/05/10 04:58:26;;;;;;;5.50;3.87;;;;;;;14.73;100.00;101042.28;5590066;31;34249;-71
2022/05/10 05:01:31;;;;;;;8.30;3.95;;;;;;;14.71;100.00;101039.81;5589922;31;35488;-71
2022/05/10 05:04:35;;;;;;;5.32;3.60;;;;;;;14.93;100.00;101037.28;5589398;31;32597;-70
2022/05/10 05:07:41;;;;;;;7.80;3.65;;;;;;;14.82;98.48;101048.41;5576405;31;32567;-69
2022/05/10 05:10:46;;;;;;;5.05;3.22;;;;;;;14.81;97.44;101050.28;5590282;31;34114;-70
2022/05/10 05:13:49;;;;;;;5.62;3.28;;;;;;;14.95;97.86;101051.31;5589911;31;34181;-70
2022/05/10 05:16:54;;;;;;;5.18;2.97;;;;;;;15.20;95.85;101053.56;5589130;31;33767;-70
2022/05/10 05:19:57;;;;;;;4.18;3.03;;;;;;;15.21;93.04;101054.41;5589280;31;33150;-70
2022/05/10 05:23:01;;;;;;;5.18;3.03;;;;;;;15.22;91.74;101061.44;5588981;31;33613;-69
2022/05/10 05:26:04;;;;;;;4.68;3.28;;;;;;;15.39;91.39;101054.94;5588918;31;33917;-69
2022/05/10 05:29:06;;;;;;;4.82;3.22;;;;;;;15.42;90.75;101062.56;5589723;31;34966;-70
2022/05/10 05:32:11;;;;;;;4.82;3.53;;;;;;;15.14;91.57;101061.50;5589029;31;33618;-70
2022/05/10 05:35:13;;;;;;;7.47;3.78;;;;;;;15.09;92.92;101050.53;5588690;31;32920;-69
2022/05/10 05:38:17;;;;;;;6.65;3.90;;;;;;;15.19;90.42;101061.78;5589712;31;35447;-70
2022/05/10 05:41:19;;;;;;;7.05;3.85;;;;;;;15.11;91.70;101065.34;5589195;31;34324;-70
2022/05/10 05:44:23;;;;;;;10.90;4.03;;;;;;;15.27;89.77;101068.91;5588410;31;32949;-70
2022/05/10 05:47:26;;;;;;;11.93;3.97;;;;;;;15.36;89.95;101068.63;5588769;31;34849;-69
2022/05/10 05:50:30;;;;;;;10.40;4.72;;;;;;;15.42;87.80;101064.41;5589384;31;34344;-69
2022/05/10 05:53:33;;;;;;;37.40;8.55;;;;;;;15.40;87.95;101066.41;5588290;31;33423;-70
2022/05/10 05:56:36;;;;;;;5.70;3.87;;;;;;;15.56;86.71;101064.47;5588506;31;33546;-70
2022/05/10 05:59:39;;;;;;;5.78;3.60;;;;;;;15.59;86.81;101060.56;5588143;31;32974;-69
2022/05/10 06:02:42;;;;;;;4.57;3.00;;;;;;;15.79;85.56;101067.03;5589261;31;34784;-70
2022/05/10 06:05:45;;;;;;;6.53;3.03;;;;;;;15.86;84.22;101070.66;5589328;31;34991;-68
2022/05/10 06:08:48;;;;;;;4.22;3.05;;;;;;;16.14;82.34;101068.13;5588497;31;32749;-69
2022/05/10 06:11:51;;;;;;;3.90;2.78;;;;;;;16.60;78.86;101070.53;5588257;31;32987;-69
2022/05/10 06:14:58;;;;;;;3.87;2.50;;;;;;;17.00;76.11;101064.53;5589438;31;34278;-69
2022/05/10 06:18:04;;;;;;;6.28;2.70;;;;;;;17.41;74.10;101066.50;5589052;31;34822;-69
2022/05/10 06:21:07;;;;;;;8.70;2.90;;;;;;;17.77;71.50;101076.06;5588355;31;33195;-68
2022/05/10 06:24:13;;;;;;;5.10;2.30;;;;;;;17.33;70.33;101072.88;5588400;31;32810;-70
2022/05/10 06:27:16;;;;;;;2.95;2.08;;;;;;;17.34;70.88;101069.12;5589225;31;34416;-70
2022/05/10 06:30:20;;;;;;;317.52;60.95;;;;;;;17.35;69.60;101073.47;5588478;31;32664;-69
2022/05/10 06:33:23;;;;;;;11.73;4.30;;;;;;;17.37;71.06;101068.75;5588432;31;34337;-69
2022/05/10 06:36:26;;;;;;;3.55;2.25;;;;;;;17.42;70.28;101068.19;5589022;31;34579;-68
2022/05/10 06:39:28;;;;;;;5.93;2.37;;;;;;;17.59;70.17;101064.19;5588444;31;34253;-69
2022/05/10 06:42:31;;;;;;;4.03;2.40;;;;;;;17.58;69.17;101060.63;5589061;31;34851;-67
2022/05/10 06:45:34;;;;;;;4.60;2.47;;;;;;;17.78;69.66;101071.53;5588389;31;33039;-69
2022/05/10 06:48:39;;;;;;;5.60;2.67;;;;;;;17.97;68.41;101068.13;5587982;31;33165;-69
2022/05/10 06:51:42;;;;;;;5.50;2.80;;;;;;;17.99;67.66;101063.38;5587838;31;32608;-68
2022/05/10 06:54:46;;;;;;;4.12;2.70;;;;;;;17.76;70.09;101058.31;5589336;31;34886;-69
2022/05/10 06:57:48;;;;;;;2.33;2.10;;;;;;;18.07;68.11;101059.69;5588785;31;34424;-69
2022/05/10 07:00:51;;;;;;;3.47;2.28;;;;;;;18.44;66.11;101061.91;5589079;31;34831;-69
2022/05/10 07:03:54;;;;;;;3.95;2.35;;;;;;;18.66;66.10;101060.75;5588083;31;32455;-69
2022/05/10 07:06:56;;;;;;;4.62;2.10;;;;;;;18.69;65.62;101059.50;5588113;31;32569;-68
2022/05/10 07:09:59;;;;;;;4.15;2.85;;;;;;;18.75;65.83;101061.38;5587453;31;33593;-69
2022/05/10 07:13:02;;;;;;;4.40;2.53;;;;;;;18.80;66.15;101052.69;5588598;31;34271;-69
2022/05/10 07:16:05;;;;;;;9.85;2.47;;;;;;;19.40;62.19;101052.50;5587872;31;34160;-70
2022/05/10 07:19:08;;;;;;;6.47;2.15;;;;;;;20.41;60.47;101052.00;5589026;31;34166;-68
2022/05/10 07:22:10;;;;;;;7.85;2.75;;;;;;;20.28;57.68;101059.06;5587380;31;34977;-68
2022/05/10 07:25:19;;;;;;;4.57;2.30;;;;;;;21.25;56.89;101053.28;5588148;31;32716;-68
2022/05/10 07:28:22;;;;;;;5.75;2.05;;;;;;;21.96;54.35;101055.50;5588937;31;34135;-69
2022/05/10 07:31:25;;;;;;;8.27;2.40;;;;;;;22.06;55.74;101058.50;5588665;31;34156;-68
2022/05/10 07:34:27;;;;;;;4.85;2.53;;;;;;;22.61;53.52;101062.97;5587408;31;33667;-68
2022/05/10 07:37:33;;;;;;;7.22;2.25;;;;;;;21.81;54.67;101068.53;5587363;31;33021;-68
2022/05/10 07:40:36;;;;;;;4.72;2.03;;;;;;;22.12;54.27;101062.16;5587799;31;33635;-68
2022/05/10 07:43:48;;;;;;;3.78;2.45;;;;;;;23.08;49.66;101062.06;5588366;31;34304;-68
2022/05/10 07:46:51;;;;;;;3.47;2.40;;;;;;;23.91;48.52;101055.59;5589307;31;32691;-69
2022/05/10 07:49:54;;;;;;;7.03;2.00;;;;;;;23.76;47.64;101064.19;5589568;31;34320;-68
2022/05/10 07:52:58;;;;;;;3.62;1.85;;;;;;;23.73;47.50;101061.94;5589626;31;32819;-69
2022/05/10 07:56:03;;;;;;;3.33;2.00;;;;;;;25.10;44.99;101054.59;5590544;31;34233;-70
2022/05/10 07:59:06;;;;;;;2.55;1.80;;;;;;;25.88;38.94;101054.41;5589966;31;33967;-69
2022/05/10 08:02:09;;;;;;;2.72;1.92;;;;;;;26.29;39.22;101053.03;5589962;31;32956;-70
2022/05/10 08:05:21;;;;;;;6.82;2.12;;;;;;;26.06;38.58;101052.44;5589461;31;33841;-70
2022/05/10 08:08:24;;;;;;;5.57;1.98;;;;;;;26.94;37.57;101051.25;5589624;31;32586;-69
2022/05/10 08:11:35;;;;;;;3.42;1.80;;;;;;;27.28;35.91;101047.16;5589985;31;34128;-69
2022/05/10 08:14:38;;;;;;;3.05;1.65;;;;;;;26.95;36.09;101042.81;5589769;31;33283;-69
2022/05/10 08:17:41;;;;;;;5.47;1.55;;;;;;;27.24;34.36;101051.50;5590105;31;34253;-70
2022/05/10 08:20:46;;;;;;;3.20;1.80;;;;;;;27.85;34.34;101041.78;5590472;31;34362;-70
2022/05/10 08:23:52;;;;;;;2.90;1.62;;;;;;;28.85;31.50;101040.44;5588828;31;34422;-69
2022/05/10 08:26:55;;;;;;;2.40;1.73;;;;;;;26.59;35.10;101035.38;5589411;31;34259;-69
2022/05/10 08:29:58;;;;;;;1.80;1.30;;;;;;;28.46;32.93;101036.56;5589105;31;32661;-68
2022/05/10 08:33:01;;;;;;;2.78;1.70;;;;;;;28.15;33.06;101032.09;5589643;31;32954;-68
2022/05/10 08:36:22;;;;;;;2.67;1.65;;;;;;;28.89;30.13;101035.28;5588650;31;33614;-68
2022/05/10 08:39:24;;;;;;;2.83;1.40;;;;;;;29.95;28.28;101032.34;5588928;31;32951;-68
2022/05/10 08:42:31;;;;;;;2.53;1.50;;;;;;;28.64;29.65;101029.75;5589191;31;32718;-67
2022/05/10 08:45:40;;;;;;;2.37;1.50;;;;;;;29.74;28.57;101026.09;5589079;31;35210;-69
2022/05/10 08:48:53;;;;;;;3.92;1.65;;;;;;;30.57;27.03;101030.94;5588792;31;32965;-68
2022/05/10 08:51:58;;;;;;;3.35;1.45;;;;;;;29.93;27.90;101033.72;5589035;31;33154;-69
2022/05/10 08:55:02;;;;;;;3.10;1.58;;;;;;;29.35;27.02;101027.88;5589068;31;32586;-68
2022/05/10 08:58:25;;;;;;;5.53;1.62;;;;;;;29.91;26.81;101020.34;5589055;31;33505;-69
2022/05/10 09:01:59;;;;;;;2.12;1.33;;;;;;;29.67;29.21;101011.94;5589102;31;33411;-68
2022/05/10 09:05:11;;;;;;;2.58;1.23;;;;;;;28.07;28.05;101008.88;5588774;31;32948;-69
2022/05/10 09:08:29;;;;;;;2.67;2.00;;;;;;;27.81;29.69;101010.69;5590162;31;34386;-68
2022/05/10 09:11:46;;;;;;;4.18;1.75;;;;;;;28.46;29.66;101014.72;5588540;31;32990;-68
2022/05/10 09:14:59;;;;;;;4.83;1.70;;;;;;;30.71;25.47;101017.41;5589727;31;34308;-69
2022/05/10 09:18:27;;;;;;;4.50;1.75;;;;;;;30.18;27.34;101004.31;5589770;31;34191;-68
2022/05/10 09:21:47;;;;;;;1.40;1.20;;;;;;;29.80;28.54;101007.75;5581610;31;35313;-68
2022/05/10 09:24:53;;;;;;;1.73;1.35;;;;;;;30.14;27.62;100994.22;5589679;31;34606;-69
2022/05/10 09:27:58;;;;;;;2.72;1.60;;;;;;;31.64;25.81;101001.44;5588562;31;32674;-69
2022/05/10 09:35:28;;;;;;;1.45;1.35;;;;;;;32.42;24.98;101003.72;5588839;31;33830;-67
2022/05/10 09:38:33;;;;;;;2.20;1.25;;;;;;;31.89;24.60;100997.56;5575806;31;32816;-68
2022/05/10 09:41:47;;;;;;;3.58;1.50;;;;;;;30.16;27.03;100997.50;5590247;31;32691;-68
2022/05/10 09:45:20;;;;;;;2.53;1.50;;;;;;;29.18;27.68;101000.00;5589521;31;34172;-67
2022/05/10 09:48:24;;;;;;;3.55;1.70;;;;;;;28.12;30.34;100997.19;5589030;31;34117;-69
2022/05/10 09:51:37;;;;;;;5.62;2.10;;;;;;;28.09;30.60;100984.88;5588947;31;33558;-67
2022/05/10 09:54:42;;;;;;;5.93;1.90;;;;;;;27.18;33.04;100993.44;5589056;31;32658;-67
2022/05/10 09:57:46;;;;;;;2.83;1.83;;;;;;;28.17;30.68;100983.56;5589565;31;34166;-67
2022/05/10 10:00:54;;;;;;;3.90;1.73;;;;;;;29.03;28.09;100984.44;5590000;31;34215;-68
2022/05/10 10:04:21;;;;;;;4.32;1.60;;;;;;;28.43;29.63;100979.78;5589453;31;34849;-67
2022/05/10 10:07:28;;;;;;;4.80;1.67;;;;;;;26.29;32.18;100982.31;5588612;31;33563;-67
2022/05/10 10:10:34;;;;;;;4.35;2.17;;;;;;;24.59;35.04;100974.22;5587564;31;34310;-69
2022/05/10 10:13:39;;;;;;;2.70;2.30;;;;;;;24.03;38.05;100969.63;5589920;31;34418;-68
2022/05/10 10:16:53;;;;;;;5.35;1.80;;;;;;;25.36;35.75;100969.75;5588887;31;34280;-66
2022/05/10 10:20:20;;;;;;;3.33;1.70;;;;;;;29.11;28.91;100966.66;5588877;31;34032;-67
2022/05/10 10:23:31;;;;;;;3.33;1.83;;;;;;;30.58;26.37;100967.66;5588491;31;33526;-68
2022/05/10 10:29:47;;;;;;;3.30;1.85;;;;;;;30.50;26.56;100946.34;5615031;31;293050;-65
2022/05/10 10:33:12;;;;;;;2.58;1.70;;;;;;;30.50;26.56;100946.34;5604143;31;33619;-67
2022/05/10 10:36:22;;;;;;;3.75;1.92;;;;;;;31.23;26.68;100950.88;5602807;31;33184;-64
2022/05/10 10:39:32;;;;;;;5.25;1.52;;;;;;;30.15;26.75;100944.69;5603381;31;32321;-66
2022/05/10 10:42:54;;;;;;;3.67;1.77;;;;;;;31.59;25.30;100943.09;5603698;31;34451;-66
2022/05/10 10:46:03;;;;;;;3.08;1.60;;;;;;;32.76;24.56;100935.59;5603335;31;33821;-67
2022/05/10 10:49:14;;;;;;;2.30;1.70;;;;;;;34.62;21.43;100944.81;5603078;31;33235;-66
2022/05/10 10:52:19;;;;;;;3.08;1.73;;;;;;;34.18;21.83;100932.69;5604417;31;34386;-66
2022/05/10 10:55:31;;;;;;;3.50;1.90;;;;;;;34.53;21.99;100936.50;5603930;31;33849;-67
2022/05/10 10:59:02;;;;;;;4.97;1.83;;;;;;;33.84;23.11;100918.63;5603120;31;32204;-67
2022/05/10 11:02:13;;;;;;;4.45;1.40;;;;;;;34.24;22.86;100923.16;5603975;31;35075;-66
2022/05/10 11:05:20;;;;;;;2.70;1.80;;;;;;;36.05;20.31;100916.47;5603052;31;33787;-67
2022/05/10 11:08:54;;;;;;;3.28;1.80;;;;;;;32.08;24.54;100920.72;5603572;31;34518;-67
2022/05/10 11:12:36;;;;;;;2.92;2.08;;;;;;;27.47;30.47;100903.94;5602773;31;33250;-67
2022/05/10 11:16:09;;;;;;;6.95;1.80;;;;;;;26.75;32.44;100906.50;5574381;31;33921;-67
2022/05/10 11:19:20;;;;;;;4.25;1.95;;;;;;;25.95;33.27;100910.94;5603763;31;33798;-67
2022/05/10 11:22:49;;;;;;;3.17;2.10;;;;;;;25.03;36.01;100910.88;5604112;31;33882;-67
2022/05/10 11:26:30;;;;;;;3.92;2.10;;;;;;;23.92;38.21;100908.97;5586981;31;33139;-66
2022/05/10 11:29:44;;;;;;;6.18;2.30;;;;;;;23.13;40.53;100899.78;5603253;31;33733;-66
2022/05/10 11:33:17;;;;;;;3.30;1.90;;;;;;;23.08;42.19;100904.25;5602708;31;32516;-66
2022/05/10 11:36:23;;;;;;;3.15;2.33;;;;;;;25.15;40.64;100893.66;5602695;31;34666;-67
2022/05/10 11:39:50;;;;;;;4.53;2.12;;;;;;;27.59;33.70;100881.94;5583344;31;32996;-66
2022/05/10 11:42:53;;;;;;;6.95;2.17;;;;;;;31.61;27.53;100878.63;5590836;31;34638;-68
2022/05/10 11:46:34;;;;;;;4.87;2.05;;;;;;;33.72;23.94;100891.63;5590322;31;33975;-67
2022/05/10 11:49:58;;;;;;;4.50;2.15;;;;;;;34.81;23.07;100888.37;5590482;31;33894;-68
2022/05/10 11:53:16;;;;;;;2.60;1.73;;;;;;;33.11;24.75;100881.06;5576156;31;32954;-68
2022/05/10 11:56:19;;;;;;;3.55;2.20;;;;;;;31.02;26.95;100876.31;5590052;31;33784;-66
2022/05/10 11:59:27;;;;;;;4.75;1.95;;;;;;;32.30;25.74;100874.25;5576328;31;32606;-68
2022/05/10 12:02:29;;;;;;;3.83;1.70;;;;;;;33.54;23.62;100873.28;5590497;31;35073;-67
2022/05/10 12:05:34;;;;;;;5.03;2.05;;;;;;;34.63;22.70;100866.53;5590104;31;34471;-66
2022/05/10 12:08:37;;;;;;;2.12;1.70;;;;;;;34.46;23.49;100868.09;5589471;31;32450;-68
2022/05/10 12:11:41;;;;;;;4.50;1.48;;;;;;;30.46;28.02;100865.88;5590558;31;33712;-68
2022/05/10 12:21:25;;;;;;;2.30;1.42;;;;;;;33.73;25.00;100851.16;5590126;31;33891;-67
2022/05/10 12:24:31;;;;;;;3.47;1.70;;;;;;;33.36;24.57;100843.97;5589187;31;32242;-67
2022/05/10 12:27:34;;;;;;;1.83;1.40;;;;;;;33.06;24.43;100854.47;5589998;31;33947;-65
2022/05/10 12:30:38;;;;;;;2.08;1.30;;;;;;;32.90;24.95;100842.16;5590316;31;33790;-67
2022/05/10 12:33:56;;;;;;;2.22;1.40;;;;;;;32.49;25.56;100825.59;5590035;31;34293;-66
2022/05/10 12:37:20;;;;;;;;;;;;;;;35.13;22.05;100822.97;5590011;31;35184;-64
2022/05/10 12:40:32;;;;;;;2.30;1.30;;;;;;;33.43;23.52;100820.44;5589145;31;32762;-65
2022/05/10 12:44:06;;;;;;;4.03;1.50;;;;;;;33.39;23.37;100813.09;5589699;31;33856;-66
2022/05/10 12:47:37;;;;;;;3.08;1.62;;;;;;;35.07;21.70;100811.28;5589707;31;34379;-66
2022/05/10 12:50:55;;;;;;;4.30;1.30;;;;;;;34.70;22.74;100804.34;5588538;31;33810;-67
2022/05/10 12:54:09;;;;;;;4.43;1.35;;;;;;;33.92;22.54;100789.28;5589183;31;32312;-65
2022/05/10 12:57:46;;;;;;;2.00;1.10;;;;;;;34.62;22.26;100782.22;5589695;31;33818;-65
2022/05/10 13:00:57;;;;;;;2.47;1.42;;;;;;;34.74;21.14;100765.94;5588882;31;32425;-65
2022/05/10 13:04:06;;;;;;;2.67;1.20;;;;;;;35.08;21.70;100762.44;5589201;31;32406;-66
2022/05/10 13:07:33;;;;;;;2.05;1.25;;;;;;;35.54;21.08;100757.12;5589676;31;33911;-66
2022/05/10 13:10:37;;;;;;;2.00;1.30;;;;;;;35.63;20.53;100754.38;5588933;31;33048;-66
2022/05/10 13:13:40;;;;;;;2.78;1.98;;;;;;;37.41;19.07;100753.19;5588824;31;32633;-67
2022/05/10 13:16:51;;;;;;;2.08;1.40;;;;;;;36.33;20.79;100734.59;5589058;31;32537;-66
2022/05/10 13:19:55;;;;;;;3.10;1.50;;;;;;;36.22;19.56;100730.56;5589815;31;34453;-66
2022/05/10 13:23:03;;;;;;;1.85;1.20;;;;;;;35.78;20.97;100726.28;5588640;31;32968;-67
2022/05/10 13:26:10;;;;;;;;;;;;;;;35.90;20.08;100720.91;5589275;31;32515;-66
2022/05/10 13:29:13;;;;;;;2.80;1.50;;;;;;;34.71;20.27;100726.03;5588368;31;32606;-67
2022/05/10 13:32:29;;;;;;;3.03;1.62;;;;;;;35.89;19.11;100718.47;5589140;31;33906;-66
2022/05/10 13:35:35;;;;;;;2.70;1.40;;;;;;;35.98;19.32;100717.31;5588965;31;34444;-67
2022/05/10 13:38:44;;;;;;;1.83;1.17;;;;;;;37.84;18.19;100707.66;5588101;31;34448;-67
2022/05/10 13:41:47;;;;;;;5.28;1.77;;;;;;;36.85;18.48;100698.37;5588139;31;32396;-66
2022/05/10 13:44:51;;;;;;;2.80;1.10;;;;;;;32.70;22.89;100691.44;5588067;31;33302;-66
2022/05/10 13:48:14;;;;;;;1.90;1.40;;;;;;;35.33;21.74;100680.87;5588900;31;33852;-65
2022/05/10 13:51:45;;;;;;;3.33;1.50;;;;;;;36.07;19.99;100682.16;5588318;31;32638;-66
2022/05/10 13:54:57;;;;;;;3.03;1.20;;;;;;;34.35;20.62;100668.38;5589223;31;33727;-66
2022/05/10 13:58:04;;;;;;;2.37;1.10;;;;;;;36.69;18.73;100667.78;5588717;31;34960;-66
2022/05/10 14:01:09;;;;;;;2.10;1.17;;;;;;;37.37;18.13;100662.88;5588313;31;32308;-66
2022/05/10 14:04:15;;;;;;;2.72;1.35;;;;;;;36.58;18.12;100661.81;5588343;31;33892;-65
2022/05/10 14:07:25;;;;;;;;;;;;;;;33.54;22.04;100653.19;5587823;31;32441;-67
2022/05/10 14:10:37;;;;;;;3.22;1.10;;;;;;;37.27;18.77;100661.31;5586789;31;34734;-66
2022/05/10 14:13:46;;;;;;;2.87;1.23;;;;;;;38.66;17.36;100655.78;5588321;31;33912;-67
2022/05/10 14:16:50;;;;;;;2.15;1.45;;;;;;;38.70;16.89;100654.72;5587526;31;32534;-68
2022/05/10 14:19:55;;;;;;;3.53;1.17;;;;;;;37.29;17.65;100650.72;5587027;31;32730;-67
2022/05/10 14:23:00;;;;;;;1.90;1.15;;;;;;;34.12;20.67;100644.78;5587454;31;32324;-67
2022/05/10 14:26:41;;;;;;;1.83;1.30;;;;;;;34.25;20.62;100654.06;5587716;31;33185;-67
2022/05/10 14:29:47;;;;;;;2.17;1.17;;;;;;;30.08;26.18;100640.44;5586942;31;33754;-67
2022/05/10 14:32:50;;;;;;;2.25;1.40;;;;;;;28.00;28.31;100631.91;5587682;31;34188;-67
2022/05/10 14:36:05;;;;;;;5.57;1.70;;;;;;;28.44;28.62;100627.41;5560951;31;33394;-67
2022/05/10 14:39:23;;;;;;;2.55;1.40;;;;;;;27.72;29.14;100630.59;5587630;31;33786;-68
2022/05/10 14:42:34;;;;;;;5.68;1.50;;;;;;;26.94;28.80;100629.19;5587274;31;34039;-67
2022/05/10 14:45:46;;;;;;;2.28;1.33;;;;;;;27.05;29.33;100619.97;5587074;31;32159;-67
2022/05/10 14:49:00;;;;;;;2.35;1.30;;;;;;;27.37;26.86;100623.25;5573133;31;32413;-67
2022/05/10 14:52:23;;;;;;;1.70;1.00;;;;;;;27.22;27.62;100617.78;5586002;31;33954;-68
2022/05/10 14:55:32;;;;;;;3.20;1.35;;;;;;;26.59;28.88;100614.38;5587411;31;34424;-66